createdAt,value
2019-05-15T00:00:38.423Z,58
2019-05-15T00:01:48.749Z,58
2019-05-15T00:02:59.881Z,58
2019-05-15T00:04:12.986Z,58
2019-05-15T00:05:23.481Z,58
2019-05-15T00:06:33.550Z,58
2019-05-15T00:07:48.006Z,58
2019-05-15T00:09:01.130Z,58
2019-05-15T00:10:12.637Z,57
2019-05-15T00:11:25.629Z,56
2019-05-15T00:12:33.524Z,57
2019-05-15T00:13:43.290Z,58
2019-05-15T00:14:52.866Z,59
2019-05-15T00:16:03.374Z,60
2019-05-15T00:17:13.427Z,59
2019-05-15T00:18:24.827Z,59
2019-05-15T00:19:36.253Z,59
2019-05-15T00:20:49.335Z,59
2019-05-15T00:21:54.818Z,58
2019-05-15T00:23:01.077Z,59
2019-05-15T00:24:04.166Z,58
2019-05-15T00:25:10.179Z,60
2019-05-15T00:26:14.376Z,59
2019-05-15T00:27:21.716Z,59
2019-05-15T00:28:30.438Z,58
2019-05-15T00:29:34.238Z,59
2019-05-15T00:30:41.827Z,58
2019-05-15T00:31:49.504Z,58
2019-05-15T00:32:54.937Z,59
2019-05-15T00:34:01.619Z,58
2019-05-15T00:35:09.233Z,58
2019-05-15T00:36:19.000Z,58
2019-05-15T00:37:29.587Z,58
2019-05-15T00:38:36.080Z,58
2019-05-15T00:39:43.859Z,58
2019-05-15T00:40:54.846Z,58
2019-05-15T00:42:04.804Z,58
2019-05-15T00:43:11.932Z,58
2019-05-15T00:44:23.540Z,58
2019-05-15T00:45:33.204Z,58
2019-05-15T00:46:40.875Z,58
2019-05-15T00:47:48.470Z,58
2019-05-15T00:48:52.605Z,59
2019-05-15T00:49:57.981Z,59
2019-05-15T00:51:03.548Z,59
2019-05-15T00:52:12.703Z,59
2019-05-15T00:53:15.263Z,60
2019-05-15T00:54:20.220Z,59
2019-05-15T00:55:22.295Z,59
2019-05-15T00:56:24.457Z,59
2019-05-15T00:57:29.172Z,59
2019-05-15T00:58:31.281Z,60
2019-05-15T00:59:33.665Z,60
2019-05-15T01:00:38.286Z,59
2019-05-15T01:01:40.354Z,59
2019-05-15T01:02:42.435Z,60
2019-05-15T01:03:44.529Z,59
2019-05-15T01:04:48.860Z,60
2019-05-15T01:05:51.321Z,60
2019-05-15T01:06:53.693Z,60
2019-05-15T01:07:56.054Z,59
2019-05-15T01:09:00.501Z,59
2019-05-15T01:10:02.586Z,60
2019-05-15T01:11:04.714Z,60
2019-05-15T01:12:09.792Z,59
2019-05-15T01:13:11.992Z,60
2019-05-15T01:14:14.346Z,60
2019-05-15T01:15:18.736Z,60
2019-05-15T01:16:20.808Z,60
2019-05-15T01:17:22.882Z,60
2019-05-15T01:18:25.026Z,60
2019-05-15T01:19:29.519Z,59
2019-05-15T01:20:31.654Z,60
2019-05-15T01:21:33.713Z,60
2019-05-15T01:22:36.198Z,61
2019-05-15T01:23:39.977Z,61
2019-05-15T01:24:42.052Z,62
2019-05-15T01:25:44.191Z,62
2019-05-15T01:26:46.267Z,62
2019-05-15T01:27:49.897Z,62
2019-05-15T01:28:51.990Z,62
2019-05-15T01:29:54.089Z,62
2019-05-15T01:30:56.213Z,61
2019-05-15T01:32:00.557Z,61
2019-05-15T01:33:02.697Z,61
2019-05-15T01:34:04.768Z,62
2019-05-15T01:35:10.288Z,62
2019-05-15T01:36:12.375Z,62
2019-05-15T01:37:14.392Z,62
2019-05-15T01:38:19.781Z,62
2019-05-15T01:39:21.853Z,62
2019-05-15T01:40:23.972Z,62
2019-05-15T01:41:28.930Z,62
2019-05-15T01:42:31.008Z,61
2019-05-15T01:43:33.429Z,61
2019-05-15T01:44:35.521Z,61
2019-05-15T01:45:40.391Z,61
2019-05-15T01:46:42.455Z,61
2019-05-15T01:47:44.881Z,61
2019-05-15T01:48:49.790Z,61
2019-05-15T01:49:51.880Z,61
2019-05-15T01:50:54.321Z,61
2019-05-15T01:51:58.746Z,60
2019-05-15T01:53:00.895Z,61
2019-05-15T01:54:03.310Z,61
2019-05-15T01:55:05.461Z,61
2019-05-15T01:56:09.404Z,61
2019-05-15T01:57:11.505Z,61
2019-05-15T01:58:13.652Z,60
2019-05-15T01:59:15.728Z,60
2019-05-15T02:00:20.003Z,61
2019-05-15T02:01:22.100Z,61
2019-05-15T02:02:24.183Z,61
2019-05-15T02:03:26.263Z,62
2019-05-15T02:04:30.741Z,62
2019-05-15T02:05:32.887Z,62
2019-05-15T02:06:35.381Z,63
2019-05-15T02:07:44.720Z,64
2019-05-15T02:08:54.892Z,64
2019-05-15T02:10:01.236Z,63
2019-05-15T02:11:04.840Z,64
2019-05-15T02:12:09.759Z,62
2019-05-15T02:13:14.878Z,62
2019-05-15T02:14:19.927Z,61
2019-05-15T02:15:23.826Z,62
2019-05-15T02:16:30.628Z,61
2019-05-15T02:17:38.905Z,61
2019-05-15T02:18:44.564Z,61
2019-05-15T02:19:53.073Z,62
2019-05-15T02:21:06.137Z,62
2019-05-15T02:22:15.378Z,62
2019-05-15T02:23:22.702Z,62
2019-05-15T02:24:25.239Z,62
2019-05-15T02:25:30.963Z,62
2019-05-15T02:26:41.130Z,62
2019-05-15T02:27:49.915Z,61
2019-05-15T02:28:53.232Z,62
2019-05-15T02:30:34.914Z,63
2019-05-15T02:31:45.300Z,63
2019-05-15T02:32:54.854Z,63
2019-05-15T02:34:10.045Z,62
2019-05-15T02:35:21.876Z,62
2019-05-15T02:36:33.490Z,62
2019-05-15T02:37:44.292Z,62
2019-05-15T02:38:52.834Z,62
2019-05-15T02:40:02.797Z,62
2019-05-15T02:41:13.990Z,62
2019-05-15T02:42:24.484Z,63
2019-05-15T02:43:34.827Z,62
2019-05-15T02:44:44.241Z,63
2019-05-15T02:45:52.488Z,63
2019-05-15T02:47:03.031Z,62
2019-05-15T02:48:12.803Z,63
2019-05-15T02:49:22.693Z,63
2019-05-15T02:50:32.569Z,63
2019-05-15T02:51:41.622Z,63
2019-05-15T02:52:52.891Z,63
2019-05-15T02:53:59.466Z,63
2019-05-15T02:55:04.952Z,63
2019-05-15T02:56:20.003Z,63
2019-05-15T02:57:23.993Z,64
2019-05-15T02:58:32.082Z,63
2019-05-15T02:59:41.495Z,63
2019-05-15T03:00:54.722Z,63
2019-05-15T03:02:01.285Z,64
2019-05-15T03:03:04.623Z,63
2019-05-15T03:04:10.691Z,64
2019-05-15T03:05:12.882Z,64
2019-05-15T03:06:18.997Z,64
2019-05-15T03:07:21.781Z,64
2019-05-15T03:08:24.584Z,64
2019-05-15T03:09:30.910Z,64
2019-05-15T03:10:34.899Z,64
2019-05-15T03:11:41.910Z,64
2019-05-15T03:12:44.828Z,64
2019-05-15T03:13:51.581Z,64
2019-05-15T03:14:59.543Z,64
2019-05-15T03:16:12.350Z,64
2019-05-15T03:17:25.807Z,64
2019-05-15T03:18:35.415Z,64
2019-05-15T03:19:40.873Z,64
2019-05-15T03:20:43.327Z,65
2019-05-15T03:21:45.513Z,65
2019-05-15T03:22:50.199Z,64
2019-05-15T03:23:52.570Z,64
2019-05-15T03:24:55.017Z,64
2019-05-15T03:26:05.129Z,64
2019-05-15T03:27:11.191Z,64
2019-05-15T03:28:20.548Z,64
2019-05-15T03:29:34.682Z,64
2019-05-15T03:32:26.984Z,64
2019-05-15T03:34:21.150Z,64
2019-05-15T03:35:45.642Z,64
2019-05-15T03:36:54.375Z,64
2019-05-15T03:38:00.085Z,64
2019-05-15T03:39:02.165Z,65
2019-05-15T03:40:04.683Z,65
2019-05-15T03:41:10.694Z,65
2019-05-15T03:42:13.464Z,65
2019-05-15T03:43:19.412Z,65
2019-05-15T03:44:21.552Z,65
2019-05-15T03:45:23.854Z,65
2019-05-15T03:46:29.826Z,65
2019-05-15T03:47:31.907Z,65
2019-05-15T03:48:33.989Z,66
2019-05-15T03:49:36.152Z,66
2019-05-15T03:50:41.637Z,66
2019-05-15T03:51:50.845Z,66
2019-05-15T03:52:52.927Z,66
2019-05-15T03:53:55.022Z,67
2019-05-15T03:54:59.666Z,66
2019-05-15T03:56:02.055Z,66
2019-05-15T03:57:04.124Z,66
2019-05-15T03:58:11.365Z,66
2019-05-15T03:59:13.514Z,66
2019-05-15T04:00:15.594Z,65
2019-05-15T04:01:44.503Z,65
2019-05-15T04:02:50.019Z,65
2019-05-15T04:03:52.811Z,65
2019-05-15T04:05:02.844Z,65
2019-05-15T04:06:05.341Z,65
2019-05-15T04:07:10.235Z,65
2019-05-15T04:08:13.212Z,64
2019-05-15T04:09:15.257Z,64
2019-05-15T04:10:21.522Z,64
2019-05-15T04:11:23.922Z,64
2019-05-15T04:12:29.418Z,64
2019-05-15T04:13:32.166Z,64
2019-05-15T04:14:34.578Z,64
2019-05-15T04:15:40.816Z,64
2019-05-15T04:16:43.624Z,64
2019-05-15T04:17:49.761Z,64
2019-05-15T04:18:51.860Z,64
2019-05-15T04:19:54.836Z,64
2019-05-15T04:21:00.712Z,64
2019-05-15T04:22:03.465Z,64
2019-05-15T04:23:05.939Z,63
2019-05-15T04:24:10.405Z,63
2019-05-15T04:25:12.781Z,63
2019-05-15T04:26:15.809Z,63
2019-05-15T04:27:21.359Z,63
2019-05-15T04:28:23.420Z,63
2019-05-15T04:29:29.114Z,63
2019-05-15T04:30:32.880Z,63
2019-05-15T04:32:10.450Z,62
2019-05-15T04:33:13.317Z,63
2019-05-15T04:34:15.467Z,62
2019-05-15T04:35:21.015Z,62
2019-05-15T04:36:23.664Z,62
2019-05-15T04:37:25.842Z,62
2019-05-15T04:38:31.723Z,62
2019-05-15T04:39:34.598Z,62
2019-05-15T04:40:40.843Z,62
2019-05-15T04:41:43.240Z,62
2019-05-15T04:42:45.336Z,62
2019-05-15T04:43:50.892Z,61
2019-05-15T04:44:52.978Z,61
2019-05-15T04:45:59.025Z,60
2019-05-15T04:47:05.518Z,61
2019-05-15T04:48:11.636Z,61
2019-05-15T04:49:13.780Z,60
2019-05-15T04:50:19.444Z,61
2019-05-15T04:51:21.602Z,61
2019-05-15T04:52:25.144Z,60
2019-05-15T04:53:34.888Z,61
2019-05-15T04:54:41.806Z,60
2019-05-15T04:55:43.936Z,60
2019-05-15T04:56:49.975Z,61
2019-05-15T04:57:52.444Z,60
2019-05-15T04:58:55.125Z,60
2019-05-15T04:59:59.571Z,60
2019-05-15T05:01:02.645Z,59
2019-05-15T05:02:32.700Z,59
2019-05-15T05:03:39.795Z,59
2019-05-15T05:04:42.913Z,60
2019-05-15T05:05:45.291Z,59
2019-05-15T05:06:50.938Z,59
2019-05-15T05:07:53.025Z,60
2019-05-15T05:08:55.136Z,59
2019-05-15T05:10:00.310Z,58
2019-05-15T05:11:03.059Z,58
2019-05-15T05:12:08.385Z,59
2019-05-15T05:13:10.625Z,58
2019-05-15T05:14:12.706Z,58
2019-05-15T05:15:15.090Z,58
2019-05-15T05:16:20.462Z,57
2019-05-15T05:17:22.606Z,56
2019-05-15T05:18:24.727Z,56
2019-05-15T05:19:29.473Z,56
2019-05-15T05:20:31.836Z,56
2019-05-15T05:21:33.937Z,57
2019-05-15T05:22:38.914Z,57
2019-05-15T05:23:41.630Z,55
2019-05-15T05:24:43.778Z,56
2019-05-15T05:25:45.845Z,55
2019-05-15T05:26:50.024Z,56
2019-05-15T05:27:52.113Z,58
2019-05-15T05:28:54.229Z,56
2019-05-15T05:29:59.427Z,56
2019-05-15T05:31:01.515Z,56
2019-05-15T05:32:03.673Z,54
2019-05-15T05:33:05.748Z,54
2019-05-15T05:34:10.310Z,53
2019-05-15T05:35:12.393Z,53
2019-05-15T05:36:14.461Z,54
2019-05-15T05:37:19.082Z,55
2019-05-15T05:38:21.571Z,54
2019-05-15T05:39:23.705Z,54
2019-05-15T05:40:26.072Z,54
2019-05-15T05:41:28.965Z,54
2019-05-15T05:42:31.419Z,54
2019-05-15T05:43:33.781Z,53
2019-05-15T05:44:37.981Z,52
2019-05-15T05:45:44.480Z,52
2019-05-15T05:46:49.098Z,53
2019-05-15T05:47:51.167Z,53
2019-05-15T05:48:53.253Z,52
2019-05-15T05:49:55.620Z,52
2019-05-15T05:51:00.046Z,52
2019-05-15T05:52:02.208Z,52
2019-05-15T05:53:04.915Z,52
2019-05-15T05:54:09.254Z,52
2019-05-15T05:55:11.752Z,52
2019-05-15T05:56:13.834Z,52
2019-05-15T05:57:16.366Z,52
2019-05-15T05:58:21.211Z,53
2019-05-15T05:59:23.286Z,53
2019-05-15T06:00:25.369Z,53
2019-05-15T06:01:29.439Z,53
2019-05-15T06:02:53.482Z,52
2019-05-15T06:03:58.158Z,52
2019-05-15T06:05:00.674Z,52
2019-05-15T06:06:02.765Z,52
2019-05-15T06:07:15.438Z,52
2019-05-15T06:08:21.093Z,52
2019-05-15T06:09:23.532Z,53
2019-05-15T06:10:25.619Z,52
2019-05-15T06:11:28.656Z,52
2019-05-15T06:12:30.729Z,51
2019-05-15T06:13:32.772Z,52
2019-05-15T06:14:35.198Z,51
2019-05-15T06:15:40.515Z,51
2019-05-15T06:16:42.663Z,52
2019-05-15T06:17:44.734Z,52
2019-05-15T06:18:49.821Z,52
2019-05-15T06:19:52.262Z,51
2019-05-15T06:20:54.348Z,51
2019-05-15T06:22:01.809Z,51
2019-05-15T06:23:03.887Z,51
2019-05-15T06:24:13.937Z,51
2019-05-15T06:25:20.841Z,51
2019-05-15T06:26:22.951Z,52
2019-05-15T06:27:27.830Z,52
2019-05-15T06:28:31.026Z,52
2019-05-15T06:29:33.500Z,52
2019-05-15T06:30:38.765Z,52
2019-05-15T06:31:40.950Z,52
2019-05-15T06:32:43.373Z,52
2019-05-15T06:34:10.672Z,52
2019-05-15T06:35:13.100Z,52
2019-05-15T06:36:18.193Z,52
2019-05-15T06:37:21.502Z,53
2019-05-15T06:38:23.803Z,53
2019-05-15T06:39:28.247Z,53
2019-05-15T06:40:30.763Z,54
2019-05-15T06:41:35.158Z,53
2019-05-15T06:42:40.411Z,53
2019-05-15T06:43:42.923Z,53
2019-05-15T06:44:45.464Z,53
2019-05-15T06:45:50.251Z,53
2019-05-15T06:46:52.405Z,53
2019-05-15T06:47:54.508Z,53
2019-05-15T06:48:59.199Z,52
2019-05-15T06:50:01.692Z,52
2019-05-15T06:51:04.778Z,52
2019-05-15T06:52:09.893Z,52
2019-05-15T06:53:12.240Z,52
2019-05-15T06:54:14.399Z,52
2019-05-15T06:55:18.893Z,52
2019-05-15T06:56:21.014Z,51
2019-05-15T06:57:23.145Z,51
2019-05-15T06:58:28.747Z,51
2019-05-15T06:59:31.336Z,51
2019-05-15T07:00:33.430Z,50
2019-05-15T07:01:35.518Z,51
2019-05-15T07:02:39.493Z,49
2019-05-15T07:03:42.192Z,49
2019-05-15T07:04:44.615Z,50
2019-05-15T07:05:46.695Z,49
2019-05-15T07:06:49.900Z,49
2019-05-15T07:07:51.987Z,49
2019-05-15T07:08:54.099Z,50
2019-05-15T07:09:59.735Z,49
2019-05-15T07:11:01.875Z,49
2019-05-15T07:12:04.015Z,48
2019-05-15T07:13:06.118Z,49
2019-05-15T07:14:10.063Z,48
2019-05-15T07:15:12.164Z,48
2019-05-15T07:16:14.248Z,48
2019-05-15T07:17:18.560Z,48
2019-05-15T07:18:21.088Z,47
2019-05-15T07:19:23.614Z,48
2019-05-15T07:20:29.010Z,46
2019-05-15T07:21:31.561Z,45
2019-05-15T07:22:34.711Z,46
2019-05-15T07:23:39.656Z,45
2019-05-15T07:24:42.062Z,44
2019-05-15T07:25:44.165Z,44
2019-05-15T07:26:49.500Z,45
2019-05-15T07:27:51.991Z,45
2019-05-15T07:28:54.667Z,45
2019-05-15T07:29:59.215Z,45
2019-05-15T07:31:01.301Z,46
2019-05-15T07:32:03.736Z,45
2019-05-15T07:33:05.826Z,44
2019-05-15T07:34:09.266Z,44
2019-05-15T07:35:11.647Z,43
2019-05-15T07:36:13.996Z,41
2019-05-15T07:37:16.178Z,41
2019-05-15T07:38:21.164Z,40
2019-05-15T07:39:23.325Z,41
2019-05-15T07:40:25.719Z,40
2019-05-15T07:41:29.352Z,41
2019-05-15T07:42:31.720Z,42
2019-05-15T07:43:33.812Z,41
2019-05-15T07:44:38.598Z,41
2019-05-15T07:45:55.683Z,41
2019-05-15T07:47:00.928Z,41
2019-05-15T07:48:03.435Z,41
2019-05-15T07:49:05.848Z,41
2019-05-15T07:50:11.378Z,40
2019-05-15T07:51:13.766Z,40
2019-05-15T07:52:15.902Z,41
2019-05-15T07:53:21.434Z,40
2019-05-15T07:54:23.880Z,39
2019-05-15T07:55:26.253Z,40
2019-05-15T07:56:29.810Z,40
2019-05-15T07:57:32.686Z,40
2019-05-15T07:58:35.449Z,40
2019-05-15T07:59:39.550Z,39
2019-05-15T08:00:41.652Z,38
2019-05-15T08:01:44.063Z,39
2019-05-15T08:02:49.028Z,40
2019-05-15T08:04:33.295Z,38
2019-05-15T08:05:35.372Z,39
2019-05-15T08:06:41.351Z,39
2019-05-15T08:07:43.853Z,39
2019-05-15T08:08:49.313Z,39
2019-05-15T08:09:51.401Z,38
2019-05-15T08:10:53.516Z,39
2019-05-15T08:11:55.643Z,38
2019-05-15T08:12:59.661Z,39
2019-05-15T08:14:04.558Z,38
2019-05-15T08:15:09.651Z,41
2019-05-15T08:16:12.331Z,38
2019-05-15T08:17:17.861Z,38
2019-05-15T08:18:24.066Z,38
2019-05-15T08:19:29.053Z,38
2019-05-15T08:20:31.468Z,38
2019-05-15T08:21:33.603Z,36
2019-05-15T08:22:38.763Z,35
2019-05-15T08:23:40.906Z,35
2019-05-15T08:24:43.005Z,34
2019-05-15T08:25:45.488Z,35
2019-05-15T08:26:49.551Z,37
2019-05-15T08:27:51.651Z,35
2019-05-15T08:28:53.726Z,37
2019-05-15T08:29:58.236Z,34
2019-05-15T08:31:01.072Z,35
2019-05-15T08:32:04.058Z,35
2019-05-15T08:33:08.845Z,35
2019-05-15T08:34:20.293Z,34
2019-05-15T08:35:22.337Z,34
2019-05-15T08:36:24.449Z,33
2019-05-15T08:37:29.379Z,33
2019-05-15T08:38:31.744Z,34
2019-05-15T08:39:34.161Z,34
2019-05-15T08:40:41.932Z,31
2019-05-15T08:41:44.082Z,31
2019-05-15T08:43:01.216Z,31
2019-05-15T08:44:04.278Z,32
2019-05-15T08:45:09.023Z,31
2019-05-15T08:46:11.286Z,30
2019-05-15T08:47:13.696Z,30
2019-05-15T08:48:18.235Z,31
2019-05-15T08:49:22.307Z,30
2019-05-15T08:50:24.478Z,29
2019-05-15T08:51:29.227Z,29
2019-05-15T08:52:31.335Z,28
2019-05-15T08:53:34.044Z,29
2019-05-15T08:54:39.073Z,27
2019-05-15T08:55:41.458Z,29
2019-05-15T08:56:43.888Z,30
2019-05-15T08:57:54.004Z,29
2019-05-15T08:59:04.986Z,30
2019-05-15T09:00:10.489Z,30
2019-05-15T09:01:12.927Z,28
2019-05-15T09:02:15.030Z,29
2019-05-15T09:03:19.214Z,28
2019-05-15T09:04:39.052Z,30
2019-05-15T09:05:41.116Z,28
2019-05-15T09:06:43.529Z,28
2019-05-15T09:07:49.485Z,29
2019-05-15T09:08:51.677Z,29
2019-05-15T09:09:54.365Z,30
2019-05-15T09:10:59.496Z,30
2019-05-15T09:12:01.597Z,30
2019-05-15T09:13:03.692Z,28
2019-05-15T09:14:09.149Z,28
2019-05-15T09:15:11.852Z,30
2019-05-15T09:16:14.007Z,30
2019-05-15T09:17:18.943Z,29
2019-05-15T09:18:21.735Z,29
2019-05-15T09:19:23.835Z,29
2019-05-15T09:20:28.872Z,28
2019-05-15T09:21:31.587Z,29
2019-05-15T09:22:33.684Z,29
2019-05-15T09:23:39.343Z,28
2019-05-15T09:24:41.859Z,28
2019-05-15T09:25:43.976Z,29
2019-05-15T09:26:49.456Z,29
2019-05-15T09:27:51.891Z,27
2019-05-15T09:28:54.091Z,29
2019-05-15T09:29:59.361Z,29
2019-05-15T09:31:01.792Z,27
2019-05-15T09:32:03.914Z,26
2019-05-15T09:33:09.318Z,26
2019-05-15T09:34:11.434Z,27
2019-05-15T09:35:13.553Z,27
2019-05-15T09:36:15.984Z,27
2019-05-15T09:37:19.236Z,27
2019-05-15T09:38:21.397Z,27
2019-05-15T09:39:23.491Z,27
2019-05-15T09:40:51.564Z,27
2019-05-15T09:41:57.742Z,28
2019-05-15T09:43:00.021Z,28
2019-05-15T09:44:03.159Z,28
2019-05-15T09:45:05.288Z,29
2019-05-15T09:46:11.178Z,29
2019-05-15T09:47:13.640Z,30
2019-05-15T09:48:16.097Z,30
2019-05-15T09:49:21.322Z,29
2019-05-15T09:50:23.727Z,29
2019-05-15T09:51:25.888Z,30
2019-05-15T09:52:31.508Z,30
2019-05-15T09:53:33.638Z,30
2019-05-15T09:54:39.881Z,30
2019-05-15T09:55:42.079Z,29
2019-05-15T09:56:44.220Z,31
2019-05-15T09:57:49.547Z,30
2019-05-15T09:58:52.016Z,31
2019-05-15T09:59:54.521Z,30
2019-05-15T10:00:57.085Z,30
2019-05-15T10:02:00.412Z,30
2019-05-15T10:03:02.825Z,30
2019-05-15T10:04:05.204Z,29
2019-05-15T10:05:12.729Z,30
2019-05-15T10:06:14.914Z,30
2019-05-15T10:07:20.073Z,29
2019-05-15T10:08:22.919Z,28
2019-05-15T10:09:25.316Z,29
2019-05-15T10:10:29.315Z,29
2019-05-15T10:11:31.400Z,29
2019-05-15T10:12:39.341Z,28
2019-05-15T10:13:41.510Z,29
2019-05-15T10:14:43.612Z,29
2019-05-15T10:15:52.454Z,27
2019-05-15T10:16:54.856Z,28
2019-05-15T10:18:00.717Z,28
2019-05-15T10:19:02.794Z,27
2019-05-15T10:20:05.192Z,27
2019-05-15T10:21:09.985Z,29
2019-05-15T10:22:13.199Z,28
2019-05-15T10:23:20.049Z,29
2019-05-15T10:24:22.638Z,29
2019-05-15T10:25:24.789Z,29
2019-05-15T10:26:29.662Z,29
2019-05-15T10:27:32.419Z,28
2019-05-15T10:28:34.627Z,28
2019-05-15T10:29:39.388Z,27
2019-05-15T10:30:41.929Z,28
2019-05-15T10:31:44.068Z,28
2019-05-15T10:32:49.384Z,28
2019-05-15T10:33:51.495Z,28
2019-05-15T10:34:53.871Z,27
2019-05-15T10:35:58.742Z,29
2019-05-15T10:37:01.512Z,30
2019-05-15T10:38:03.682Z,30
2019-05-15T10:39:09.507Z,30
2019-05-15T10:40:12.300Z,29
2019-05-15T10:41:18.454Z,30
2019-05-15T10:42:21.029Z,29
2019-05-15T10:43:23.463Z,28
2019-05-15T10:44:25.562Z,30
2019-05-15T10:45:30.640Z,29
2019-05-15T10:46:33.680Z,29
2019-05-15T10:47:39.472Z,27
2019-05-15T10:48:42.179Z,28
2019-05-15T10:49:44.280Z,28
2019-05-15T10:50:46.447Z,29
2019-05-15T10:51:48.574Z,30
2019-05-15T10:52:50.702Z,28
2019-05-15T10:53:53.090Z,28
2019-05-15T10:54:58.045Z,27
2019-05-15T10:56:03.880Z,26
2019-05-15T10:57:09.312Z,28
2019-05-15T10:58:22.804Z,27
2019-05-15T10:59:25.146Z,27
2019-05-15T11:00:29.882Z,27
2019-05-15T11:01:32.009Z,27
2019-05-15T11:02:34.376Z,25
2019-05-15T11:03:36.492Z,26
2019-05-15T11:04:40.172Z,26
2019-05-15T11:05:50.014Z,27
2019-05-15T11:06:52.316Z,28
2019-05-15T11:07:54.716Z,27
2019-05-15T11:08:59.790Z,27
2019-05-15T11:10:03.289Z,27
2019-05-15T11:11:05.482Z,26
2019-05-15T11:12:09.544Z,27
2019-05-15T11:13:14.772Z,26
2019-05-15T11:14:21.710Z,25
2019-05-15T11:15:25.508Z,25
2019-05-15T11:16:29.581Z,26
2019-05-15T11:17:33.004Z,27
2019-05-15T11:18:39.716Z,26
2019-05-15T11:19:43.535Z,27
2019-05-15T11:20:50.413Z,26
2019-05-15T11:21:53.567Z,27
2019-05-15T11:22:59.653Z,27
2019-05-15T11:24:04.369Z,28
2019-05-15T11:25:12.580Z,27
2019-05-15T11:26:19.962Z,26
2019-05-15T11:27:25.191Z,27
2019-05-15T11:28:38.645Z,26
2019-05-15T11:29:43.571Z,28
2019-05-15T11:30:50.102Z,27
2019-05-15T11:31:53.948Z,27
2019-05-15T11:32:59.942Z,28
2019-05-15T11:34:02.994Z,28
2019-05-15T11:35:06.236Z,28
2019-05-15T11:36:09.483Z,27
2019-05-15T11:37:13.079Z,27
2019-05-15T11:38:21.374Z,29
2019-05-15T11:39:24.921Z,27
2019-05-15T11:40:30.157Z,27
2019-05-15T11:41:32.931Z,28
2019-05-15T11:42:35.635Z,28
2019-05-15T11:43:41.277Z,27
2019-05-15T11:44:44.492Z,28
2019-05-15T11:45:50.096Z,28
2019-05-15T11:46:53.386Z,27
2019-05-15T11:47:56.159Z,26
2019-05-15T11:48:59.880Z,26
2019-05-15T11:50:02.798Z,27
2019-05-15T11:51:09.180Z,28
2019-05-15T11:52:15.115Z,28
2019-05-15T11:53:23.207Z,28
2019-05-15T11:54:29.930Z,28
2019-05-15T11:55:35.011Z,27
2019-05-15T11:56:41.776Z,28
2019-05-15T11:57:59.241Z,28
2019-05-15T11:59:03.338Z,29
2019-05-15T12:00:30.658Z,30
2019-05-15T12:01:35.504Z,30
2019-05-15T12:02:39.754Z,29
2019-05-15T12:03:45.158Z,28
2019-05-15T12:04:50.492Z,28
2019-05-15T12:05:54.779Z,28
2019-05-15T12:07:04.441Z,28
2019-05-15T12:08:13.392Z,28
2019-05-15T12:09:19.803Z,27
2019-05-15T12:10:24.915Z,29
2019-05-15T12:11:41.815Z,26
2019-05-15T12:12:49.997Z,27
2019-05-15T12:13:54.115Z,27
2019-05-15T12:14:58.671Z,28
2019-05-15T12:16:02.822Z,27
2019-05-15T12:17:18.799Z,28
2019-05-15T12:18:22.948Z,28
2019-05-15T12:19:30.083Z,28
2019-05-15T12:20:34.152Z,28
2019-05-15T12:21:40.050Z,28
2019-05-15T12:22:43.269Z,28
2019-05-15T12:23:51.631Z,28
2019-05-15T12:25:00.123Z,28
2019-05-15T12:26:04.934Z,27
2019-05-15T12:27:19.520Z,28
2019-05-15T12:28:23.014Z,27
2019-05-15T12:29:29.779Z,28
2019-05-15T12:30:33.121Z,28
2019-05-15T12:31:39.736Z,29
2019-05-15T12:32:42.424Z,27
2019-05-15T12:33:46.122Z,28
2019-05-15T12:34:52.981Z,28
2019-05-15T12:35:57.165Z,28
2019-05-15T12:37:02.036Z,28
2019-05-15T12:38:05.227Z,29
2019-05-15T12:39:23.084Z,29
2019-05-15T12:59:45.870Z,24
2019-05-15T13:00:50.711Z,25
2019-05-15T13:01:54.514Z,24
2019-05-15T13:03:01.802Z,25
2019-05-15T13:04:08.217Z,24
2019-05-15T13:05:13.052Z,23
2019-05-15T13:06:19.879Z,24
2019-05-15T13:07:24.035Z,25
2019-05-15T13:08:31.202Z,24
2019-05-15T13:09:35.328Z,24
2019-05-15T13:10:40.228Z,24
2019-05-15T13:11:44.616Z,23
2019-05-15T13:13:09.968Z,23
2019-05-15T13:14:12.818Z,24
2019-05-15T13:15:18.736Z,23
2019-05-15T13:16:22.224Z,22
2019-05-15T13:17:25.225Z,22
2019-05-15T13:18:30.134Z,22
2019-05-15T13:19:32.916Z,22
2019-05-15T13:20:38.709Z,23
2019-05-15T13:21:41.732Z,22
2019-05-15T13:22:45.246Z,22
2019-05-15T13:23:49.323Z,22
2019-05-15T13:24:52.697Z,23
2019-05-15T13:25:58.763Z,22
2019-05-15T13:27:03.052Z,23
2019-05-15T13:28:05.807Z,22
2019-05-15T13:29:12.090Z,23
2019-05-15T13:30:18.174Z,22
2019-05-15T13:31:20.943Z,22
2019-05-15T13:32:23.865Z,22
2019-05-15T13:33:27.008Z,21
2019-05-15T13:34:32.921Z,21
2019-05-15T13:35:39.257Z,22
2019-05-15T13:36:42.079Z,21
2019-05-15T13:37:49.168Z,22
2019-05-15T13:38:58.070Z,21
2019-05-15T13:40:02.114Z,22
2019-05-15T13:41:05.700Z,22
2019-05-15T13:42:11.139Z,23
2019-05-15T13:43:14.525Z,23
2019-05-15T13:44:19.832Z,22
2019-05-15T13:45:23.590Z,22
2019-05-15T13:46:33.131Z,22
2019-05-15T13:47:36.324Z,19
2019-05-15T13:48:41.884Z,21
2019-05-15T13:49:51.014Z,21
2019-05-15T13:51:03.444Z,21
2019-05-15T13:52:14.456Z,21
2019-05-15T13:53:27.878Z,22
2019-05-15T13:54:40.323Z,20
2019-05-15T13:55:56.471Z,21
2019-05-15T13:57:08.749Z,20
2019-05-15T13:58:20.889Z,21
2019-05-15T13:59:35.343Z,20
2019-05-15T16:03:49.475Z,25
2019-05-15T16:04:51.783Z,24
2019-05-15T16:05:54.365Z,25
2019-05-15T16:06:59.904Z,25
2019-05-15T16:08:03.004Z,25
2019-05-15T16:09:05.208Z,25
2019-05-15T16:10:09.453Z,26
2019-05-15T16:11:12.055Z,25
2019-05-15T16:12:14.391Z,24
2019-05-15T16:13:20.078Z,24
2019-05-15T16:14:22.574Z,25
2019-05-15T16:15:25.789Z,24
2019-05-15T16:16:31.604Z,24
2019-05-15T16:17:38.088Z,24
2019-05-15T16:18:41.705Z,24
2019-05-15T16:19:45.117Z,24
2019-05-15T16:20:50.383Z,24
2019-05-15T16:21:53.512Z,24
2019-05-15T16:22:55.764Z,24
2019-05-15T16:24:06.997Z,25
2019-05-15T16:25:23.645Z,25
2019-05-15T16:26:28.875Z,24
2019-05-15T16:27:33.642Z,26
2019-05-15T16:28:43.250Z,25
2019-05-15T16:29:50.682Z,25
2019-05-15T16:30:58.507Z,25
2019-05-15T16:32:08.550Z,25
2019-05-15T16:33:18.215Z,25
2019-05-15T16:34:28.234Z,25
2019-05-15T16:35:37.932Z,25
2019-05-15T16:36:45.738Z,26
2019-05-15T16:37:55.115Z,26
2019-05-15T16:39:14.726Z,25
2019-05-15T16:40:22.540Z,25
2019-05-15T16:41:28.808Z,25
2019-05-15T16:42:33.273Z,25
2019-05-15T16:43:40.386Z,25
2019-05-15T16:44:45.372Z,25
2019-05-15T16:45:54.501Z,24
2019-05-15T16:47:00.112Z,26
2019-05-15T16:48:04.918Z,25
2019-05-15T16:49:08.811Z,25
2019-05-15T16:50:11.072Z,25
2019-05-15T16:51:13.446Z,25
2019-05-15T16:52:18.776Z,23
2019-05-15T16:53:21.559Z,24
2019-05-15T16:54:24.518Z,24
2019-05-15T16:55:29.928Z,23
2019-05-15T16:56:32.451Z,23
2019-05-15T16:57:35.227Z,23
2019-05-15T16:58:39.636Z,23
2019-05-15T16:59:43.043Z,24
2019-05-15T17:00:45.709Z,23
2019-05-15T17:01:50.673Z,23
2019-05-15T17:03:18.226Z,23
2019-05-15T17:04:20.953Z,23
2019-05-15T17:05:23.276Z,23
2019-05-15T17:06:28.359Z,23
2019-05-15T17:07:31.336Z,24
2019-05-15T17:08:34.147Z,25
2019-05-15T17:09:40.235Z,25
2019-05-15T17:10:44.466Z,25
2019-05-15T17:11:52.217Z,25
2019-05-15T17:12:59.656Z,25
2019-05-15T17:14:04.367Z,25
2019-05-15T17:15:10.640Z,25
2019-05-15T17:16:19.256Z,25
2019-05-15T17:17:25.007Z,26
2019-05-15T17:18:33.034Z,27
2019-05-15T17:19:38.998Z,27
2019-05-15T17:20:45.122Z,27
2019-05-15T17:21:52.520Z,27
2019-05-15T17:22:59.536Z,28
2019-05-15T17:24:05.561Z,28
2019-05-15T17:25:18.150Z,29
2019-05-15T17:26:24.887Z,29
2019-05-15T17:27:32.408Z,30
2019-05-15T17:28:39.853Z,30
2019-05-15T17:29:44.998Z,30
2019-05-15T17:30:52.531Z,30
2019-05-15T17:31:58.007Z,30
2019-05-15T17:33:03.555Z,31
2019-05-15T17:34:09.615Z,30
2019-05-15T17:35:18.283Z,30
2019-05-15T17:36:21.811Z,31
2019-05-15T17:37:30.577Z,30
2019-05-15T17:38:38.073Z,30
2019-05-15T17:39:44.772Z,31
2019-05-15T17:40:54.579Z,31
2019-05-15T17:42:02.944Z,31
2019-05-15T17:43:10.784Z,31
2019-05-15T17:44:16.230Z,31
2019-05-15T17:45:22.324Z,31
2019-05-15T17:46:32.537Z,31
2019-05-15T17:47:42.375Z,30
2019-05-15T17:49:07.975Z,30
2019-05-15T17:50:21.846Z,30
2019-05-15T17:51:30.102Z,30
2019-05-15T17:52:35.153Z,29
2019-05-15T17:53:40.427Z,30
2019-05-15T17:54:51.205Z,29
2019-05-15T17:56:00.941Z,30